Southwest Oregon Regional Airport
KOTH : now visible

Airfield :











YOU CAN JOIN US ON...

 
LOGIN :

Register | Disclaimer

   EN    FR    IT 

 









Legend :    VFR   Marginal VFR   IFR   Intensive IFR   Very Intensive IFR
Visi :
Ceiling :
>= 8 km
>= 3000ft
5 to 8 km
1000 to 3000 ft
1500m to 5 km
500 to 1000 ft
800 to 1500m
200 to 500 ft
< 800m
< 200 ft
Symbols :   Thunderstorms  Fog  Heavy snow  Heavy precipitations  Wind > 20 kt






- Airport Elevation : 17 ft
- IATA code : OTH


KOTH - Southwest Oregon Regional

CURRENT METAR :
  • 062356Z 35012KT 10SM FEW016 OVC027 11/08 A3005 RMK AO2 SLPNO T01060078 10111 20078 52007 $

EXPIRED METARs :
  • 062256Z 34010KT 10SM BKN025 OVC035 11/08 A3004 RMK AO2 SLP171 T01110083 $
  • 062209Z 35007KT 10SM SCT012 BKN019 OVC026 11/08 A3004 RMK AO2 $
  • 062156Z 35007KT 10SM BKN012 OVC019 11/08 A3004 RMK AO2 SLP171 T01060083 $

TAF KOTH
Valid from the 07 at 00:00 until the 08 at 00:00 UTC


062330Z 0700/0724 35010G15KT P6SM SCT020 BKN035
FM070500 02006KT P6SM OVC010
FM071800 36008G16KT P6SM BKN050



MET'MAP, your aeronautical weather chart ! - Copyright ORBIFLY December 2007 - Disclaimer

ORBIFLY MET'MAP TEAM :

Programming & Development : Alexandra Zaïnal
Concept & original design : Baudouin d'Aumeries
Assistance for programming : Marc-Olivier Méhu
Technical & hardware support : Manuel Goepfert

Contact : metmap@orbifly.com




SOURCES & CREDITS :

   NOAA       Earth
Advisory